sensor_id;sensor_type;location;lat;lon;timestamp;pressure;altitude;pressure_sealevel;temperature
68342;BMP280;55668;52.310;21.066;2022-08-19T00:43:37;100490.0;;;21.4
68342;BMP280;55668;52.310;21.066;2022-08-19T00:58:38;100490.0;;;21.1
68342;BMP280;55668;52.310;21.066;2022-08-19T01:17:11;100500.0;;;21.0
68342;BMP280;55668;52.310;21.066;2022-08-19T01:32:43;100490.0;;;20.8
68342;BMP280;55668;52.310;21.066;2022-08-19T01:44:59;100500.0;;;20.5
68342;BMP280;55668;52.310;21.066;2022-08-19T02:31:01;100480.0;;;20.4
68342;BMP280;55668;52.310;21.066;2022-08-19T03:01:52;100490.0;;;20.3
68342;BMP280;55668;52.310;21.066;2022-08-19T03:21:42;100480.0;;;20.2
68342;BMP280;55668;52.310;21.066;2022-08-19T03:32:22;100470.0;;;20.3
68342;BMP280;55668;52.310;21.066;2022-08-19T03:51:57;100490.0;;;20.4
68342;BMP280;55668;52.310;21.066;2022-08-19T04:04:03;100500.0;;;20.5
68342;BMP280;55668;52.310;21.066;2022-08-19T04:19:16;100500.0;;;20.8
68342;BMP280;55668;52.310;21.066;2022-08-19T04:34:20;100490.0;;;21.1
68342;BMP280;55668;52.310;21.066;2022-08-19T04:49:39;100500.0;;;21.5
68342;BMP280;55668;52.310;21.066;2022-08-19T05:05:50;100490.0;;;22.5
68342;BMP280;55668;52.310;21.066;2022-08-19T05:20:50;100490.0;;;23.5
68342;BMP280;55668;52.310;21.066;2022-08-19T05:35:27;100500.0;;;23.6
68342;BMP280;55668;52.310;21.066;2022-08-19T05:56:23;100520.0;;;26.0
68342;BMP280;55668;52.310;21.066;2022-08-19T06:08:40;100510.0;;;29.0
68342;BMP280;55668;52.310;21.066;2022-08-19T06:22:54;100490.0;;;29.8
68342;BMP280;55668;52.310;21.066;2022-08-19T06:38:35;100500.0;;;33.6
68342;BMP280;55668;52.310;21.066;2022-08-19T06:53:06;100500.0;;;34.5
68342;BMP280;55668;52.310;21.066;2022-08-19T07:07:25;100510.0;;;35.4
68342;BMP280;55668;52.310;21.066;2022-08-19T07:23:09;100520.0;;;36.6
68342;BMP280;55668;52.310;21.066;2022-08-19T07:32:09;100520.0;;;34.2
68342;BMP280;55668;52.310;21.066;2022-08-19T07:48:27;100500.0;;;36.3
68342;BMP280;55668;52.310;21.066;2022-08-19T08:08:49;100500.0;;;36.9
68342;BMP280;55668;52.310;21.066;2022-08-19T08:17:55;100500.0;;;34.1
68342;BMP280;55668;52.310;21.066;2022-08-19T08:32:24;100490.0;;;32.3
68342;BMP280;55668;52.310;21.066;2022-08-19T08:48:13;100510.0;;;30.9
68342;BMP280;55668;52.310;21.066;2022-08-19T09:03:17;100510.0;;;30.1
68342;BMP280;55668;52.310;21.066;2022-08-19T09:18:09;100530.0;;;29.8
68342;BMP280;55668;52.310;21.066;2022-08-19T10:04:24;100530.0;;;30.1
68342;BMP280;55668;52.310;21.066;2022-08-19T10:21:32;100510.0;;;30.4
68342;BMP280;55668;52.310;21.066;2022-08-19T10:35:41;100500.0;;;30.6
68342;BMP280;55668;52.310;21.066;2022-08-19T11:05:51;100490.0;;;30.9
68342;BMP280;55668;52.310;21.066;2022-08-19T11:21:15;100480.0;;;31.0
68342;BMP280;55668;52.310;21.066;2022-08-19T11:37:33;100450.0;;;31.2
68342;BMP280;55668;52.310;21.066;2022-08-19T12:07:55;100420.0;;;31.1
68342;BMP280;55668;52.310;21.066;2022-08-19T12:23:39;100400.0;;;31.2
68342;BMP280;55668;52.310;21.066;2022-08-19T12:55:04;100370.0;;;31.3
68342;BMP280;55668;52.310;21.066;2022-08-19T13:24:51;100370.0;;;31.2
68342;BMP280;55668;52.310;21.066;2022-08-19T13:42:49;100360.0;;;31.1
68342;BMP280;55668;52.310;21.066;2022-08-19T14:13:16;100380.0;;;31.0
68342;BMP280;55668;52.310;21.066;2022-08-19T14:56:26;100380.0;;;30.8
68342;BMP280;55668;52.310;21.066;2022-08-19T15:27:10;100380.0;;;30.6
68342;BMP280;55668;52.310;21.066;2022-08-19T16:00:14;100360.0;;;30.4
68342;BMP280;55668;52.310;21.066;2022-08-19T16:13:23;100360.0;;;30.2
68342;BMP280;55668;52.310;21.066;2022-08-19T16:29:44;100350.0;;;30.0
68342;BMP280;55668;52.310;21.066;2022-08-19T16:43:50;100350.0;;;29.7
68342;BMP280;55668;52.310;21.066;2022-08-19T16:59:52;100350.0;;;29.3
68342;BMP280;55668;52.310;21.066;2022-08-19T17:16:47;100360.0;;;29.0
68342;BMP280;55668;52.310;21.066;2022-08-19T17:30:12;100360.0;;;28.6
68342;BMP280;55668;52.310;21.066;2022-08-19T17:46:46;100390.0;;;28.2
68342;BMP280;55668;52.310;21.066;2022-08-19T18:03:48;100410.0;;;27.7
68342;BMP280;55668;52.310;21.066;2022-08-19T18:16:18;100430.0;;;27.3
68342;BMP280;55668;52.310;21.066;2022-08-19T18:31:42;100450.0;;;27.0
68342;BMP280;55668;52.310;21.066;2022-08-19T18:51:57;100440.0;;;26.8
68342;BMP280;55668;52.310;21.066;2022-08-19T19:02:36;100410.0;;;26.6
68342;BMP280;55668;52.310;21.066;2022-08-19T19:19:57;100410.0;;;26.2
68342;BMP280;55668;52.310;21.066;2022-08-19T19:34:18;100430.0;;;26.0
68342;BMP280;55668;52.310;21.066;2022-08-19T19:49:35;100440.0;;;25.8
68342;BMP280;55668;52.310;21.066;2022-08-19T20:04:02;100440.0;;;25.6
68342;BMP280;55668;52.310;21.066;2022-08-19T20:20:06;100460.0;;;25.4
68342;BMP280;55668;52.310;21.066;2022-08-19T20:36:07;100460.0;;;25.2
68342;BMP280;55668;52.310;21.066;2022-08-19T20:51:46;100490.0;;;25.1
68342;BMP280;55668;52.310;21.066;2022-08-19T21:07:16;100480.0;;;24.8
68342;BMP280;55668;52.310;21.066;2022-08-19T21:20:34;100490.0;;;24.7
68342;BMP280;55668;52.310;21.066;2022-08-19T21:51:47;100470.0;;;24.5
68342;BMP280;55668;52.310;21.066;2022-08-19T22:08:55;100450.0;;;24.3
68342;BMP280;55668;52.310;21.066;2022-08-19T22:23:47;100450.0;;;24.2
68342;BMP280;55668;52.310;21.066;2022-08-19T22:38:05;100460.0;;;24.1
68342;BMP280;55668;52.310;21.066;2022-08-19T23:24:07;100510.0;;;24.2
68342;BMP280;55668;52.310;21.066;2022-08-19T23:54:51;100520.0;;;24.1
